Time;durP1;ratioP1;P1;durP2;ratioP2;P2;SDS_P1;SDS_P2;PMS_P1;PMS_P2;Temp;Humidity;BMP_temperature;BMP_pressure;BME280_temperature;BME280_humidity;BME280_pressure;Samples;Min_cycle;Max_cycle;Signal;HPM_P1;HPM_P2
2023/09/29 00:01:35;;;;;;;10.90;8.67;;;16.90;99.90;;;;;;5117444;28;20483;-59
2023/09/29 00:04:04;;;;;;;10.77;7.60;;;17.00;99.90;;;;;;5117752;28;20462;-59
2023/09/29 00:06:32;;;;;;;13.63;9.03;;;17.00;99.90;;;;;;5119699;28;20883;-59
2023/09/29 00:09:01;;;;;;;10.53;7.70;;;17.00;99.90;;;;;;5121421;28;20459;-59
2023/09/29 00:11:31;;;;;;;8.43;7.63;;;17.00;99.90;;;;;;5121517;28;20829;-59
2023/09/29 00:13:58;;;;;;;7.87;7.07;;;17.00;99.90;;;;;;5120367;28;20509;-59
2023/09/29 00:16:25;;;;;;;9.17;7.63;;;17.00;99.90;;;;;;5121320;28;20798;-59
2023/09/29 00:18:52;;;;;;;9.27;7.57;;;17.00;99.90;;;;;;5121263;28;20550;-58
2023/09/29 00:21:20;;;;;;;8.53;7.37;;;16.90;99.90;;;;;;5121284;28;20742;-58
2023/09/29 00:23:48;;;;;;;10.33;7.83;;;17.00;99.90;;;;;;5121265;28;20465;-59
2023/09/29 00:26:16;;;;;;;8.87;7.73;;;17.00;99.90;;;;;;5120576;28;20440;-59
2023/09/29 00:28:44;;;;;;;7.33;6.60;;;17.00;99.90;;;;;;5120542;28;20466;-59
2023/09/29 00:31:11;;;;;;;6.97;6.27;;;17.00;99.90;;;;;;5121386;28;20616;-58
2023/09/29 00:33:38;;;;;;;8.93;7.90;;;17.00;99.90;;;;;;5121272;28;20498;-59
2023/09/29 00:36:06;;;;;;;10.83;7.90;;;17.00;99.90;;;;;;5121068;28;20733;-59
2023/09/29 00:38:34;;;;;;;7.30;6.60;;;17.10;99.90;;;;;;5120871;28;20512;-59
2023/09/29 00:41:01;;;;;;;10.20;7.10;;;17.00;99.90;;;;;;5121161;28;20524;-59
2023/09/29 00:43:32;;;;;;;13.90;9.60;;;17.00;99.90;;;;;;5120594;28;20459;-59
2023/09/29 00:46:00;;;;;;;9.23;7.03;;;16.90;99.90;;;;;;5120601;28;20885;-59
2023/09/29 00:48:30;;;;;;;7.73;6.03;;;16.90;99.90;;;;;;5120466;28;20571;-59
2023/09/29 00:50:57;;;;;;;8.47;7.57;;;16.90;99.90;;;;;;5120630;28;20553;-59
2023/09/29 00:53:25;;;;;;;8.00;6.70;;;16.80;99.90;;;;;;5120795;28;20559;-57
2023/09/29 00:55:52;;;;;;;9.53;7.13;;;16.80;99.90;;;;;;5120539;28;20509;-59
2023/09/29 00:58:21;;;;;;;8.70;6.43;;;16.80;99.90;;;;;;5120403;28;20491;-59
2023/09/29 01:00:52;;;;;;;8.63;6.10;;;16.80;99.90;;;;;;5120262;28;20463;-58
2023/09/29 01:03:19;;;;;;;7.60;5.97;;;16.70;99.90;;;;;;5119800;28;20932;-59
2023/09/29 01:05:49;;;;;;;6.90;5.90;;;16.70;99.90;;;;;;5120914;28;20736;-59
2023/09/29 01:08:17;;;;;;;9.37;6.50;;;16.80;99.90;;;;;;5119737;28;20880;-57
2023/09/29 01:10:45;;;;;;;7.67;6.90;;;16.80;99.90;;;;;;5120006;28;20779;-58
2023/09/29 01:13:12;;;;;;;11.70;7.20;;;16.90;99.90;;;;;;5119858;28;20455;-58
2023/09/29 01:15:40;;;;;;;6.67;6.00;;;16.90;99.90;;;;;;5120121;28;20462;-58
2023/09/29 01:18:10;;;;;;;8.50;7.00;;;16.90;99.90;;;;;;5119994;28;20899;-58
2023/09/29 01:20:37;;;;;;;8.20;7.00;;;16.90;99.90;;;;;;5119976;28;20463;-58
2023/09/29 01:23:07;;;;;;;8.80;7.20;;;16.90;99.90;;;;;;5119980;28;20486;-58
2023/09/29 01:25:37;;;;;;;7.80;7.00;;;16.90;99.90;;;;;;5119927;28;20468;-59
2023/09/29 01:28:06;;;;;;;8.10;7.30;;;16.90;99.90;;;;;;5119775;28;20558;-58
2023/09/29 01:30:33;;;;;;;9.77;6.87;;;16.90;99.90;;;;;;5119757;28;20488;-59
2023/09/29 01:33:01;;;;;;;9.57;7.30;;;17.00;99.90;;;;;;5120373;28;20456;-59
2023/09/29 01:35:28;;;;;;;7.80;7.10;;;17.00;99.90;;;;;;5119658;28;20822;-59
2023/09/29 01:37:58;;;;;;;8.20;6.93;;;17.00;99.90;;;;;;5119015;28;20455;-59
2023/09/29 01:40:26;;;;;;;9.77;7.03;;;16.90;99.90;;;;;;5119469;28;20483;-59
2023/09/29 01:42:56;;;;;;;8.93;6.97;;;16.90;99.90;;;;;;5119637;28;20506;-59
2023/09/29 01:45:23;;;;;;;10.30;7.93;;;17.00;99.90;;;;;;5119725;28;20455;-59
2023/09/29 01:47:51;;;;;;;9.20;6.70;;;17.00;99.90;;;;;;5118995;28;20491;-59
2023/09/29 01:50:20;;;;;;;11.50;8.10;;;17.00;99.90;;;;;;5118982;28;20497;-60
2023/09/29 01:52:48;;;;;;;7.40;6.70;;;16.90;99.90;;;;;;5119667;28;20455;-59
2023/09/29 01:55:19;;;;;;;9.73;6.40;;;16.90;99.90;;;;;;5119907;28;20455;-58
2023/09/29 01:57:48;;;;;;;10.00;6.90;;;16.90;99.90;;;;;;5119201;28;20455;-58
2023/09/29 02:00:23;;;;;;;8.63;7.20;;;16.90;99.90;;;;;;5119067;28;20550;-59
2023/09/29 02:02:51;;;;;;;10.17;7.53;;;16.90;99.90;;;;;;5118908;28;20487;-59
2023/09/29 02:05:19;;;;;;;10.13;6.93;;;16.90;99.90;;;;;;5119285;28;20874;-59
2023/09/29 02:07:46;;;;;;;7.70;6.90;;;16.80;99.90;;;;;;5119105;28;20455;-59
2023/09/29 02:10:14;;;;;;;8.10;7.23;;;16.90;99.90;;;;;;5118172;28;20848;-59
2023/09/29 02:12:46;;;;;;;7.77;6.80;;;16.80;99.90;;;;;;5119529;28;20737;-59
2023/09/29 02:15:17;;;;;;;9.07;6.90;;;16.70;99.90;;;;;;5119511;28;20455;-59
2023/09/29 02:17:44;;;;;;;8.63;7.73;;;16.80;99.90;;;;;;5119043;28;20460;-58
2023/09/29 02:20:15;;;;;;;8.30;6.27;;;16.80;99.90;;;;;;5118570;28;20460;-59
2023/09/29 02:22:42;;;;;;;9.43;6.50;;;16.70;99.90;;;;;;5118949;28;20456;-59
2023/09/29 02:25:15;;;;;;;8.37;6.87;;;16.80;99.90;;;;;;5118776;28;20459;-59
2023/09/29 02:27:42;;;;;;;7.77;6.53;;;16.80;99.90;;;;;;5119153;28;20459;-59
2023/09/29 02:30:13;;;;;;;8.73;6.83;;;16.80;99.90;;;;;;5117378;28;20483;-58
2023/09/29 02:32:42;;;;;;;7.53;6.83;;;16.80;99.90;;;;;;5118805;28;20515;-59
2023/09/29 02:35:12;;;;;;;7.70;7.00;;;16.90;99.90;;;;;;5118832;28;20903;-60
2023/09/29 02:37:39;;;;;;;11.80;6.60;;;16.90;99.90;;;;;;5118916;28;20743;-58
2023/09/29 02:40:14;;;;;;;7.13;6.13;;;16.90;99.90;;;;;;5118199;28;20469;-59
2023/09/29 02:42:44;;;;;;;8.17;6.40;;;16.90;99.90;;;;;;5118862;28;20463;-59
2023/09/29 02:45:11;;;;;;;7.70;6.83;;;16.80;99.90;;;;;;5117998;28;20482;-59
2023/09/29 02:47:39;;;;;;;8.50;6.23;;;16.80;99.90;;;;;;5118546;28;20459;-59
2023/09/29 02:50:09;;;;;;;8.17;7.23;;;16.80;99.90;;;;;;5117494;28;20784;-59
2023/09/29 02:52:37;;;;;;;7.27;6.67;;;16.90;99.90;;;;;;5118462;28;20879;-59
2023/09/29 02:55:06;;;;;;;8.27;7.10;;;16.90;99.90;;;;;;5118730;28;20963;-59
2023/09/29 02:57:33;;;;;;;9.60;6.10;;;16.90;99.90;;;;;;5118498;28;20550;-59
2023/09/29 03:00:11;;;;;;;9.70;7.47;;;16.80;99.90;;;;;;5118541;28;20554;-59
2023/09/29 03:02:38;;;;;;;8.67;6.90;;;16.80;99.90;;;;;;5117574;28;20519;-59
2023/09/29 03:05:09;;;;;;;7.33;6.53;;;16.80;99.90;;;;;;5116569;28;20440;-59
2023/09/29 03:07:37;;;;;;;10.33;6.60;;;16.70;99.90;;;;;;5118413;28;20553;-58
2023/09/29 03:10:05;;;;;;;7.43;6.73;;;16.70;99.90;;;;;;5117962;28;20832;-59
2023/09/29 03:12:33;;;;;;;7.33;6.30;;;16.70;99.90;;;;;;5118311;28;20455;-59
2023/09/29 03:15:00;;;;;;;7.60;6.13;;;16.70;99.90;;;;;;5118396;28;20954;-59
2023/09/29 03:17:30;;;;;;;9.10;6.80;;;16.70;99.90;;;;;;5117807;28;20455;-56
2023/09/29 03:19:58;;;;;;;6.77;6.03;;;16.70;99.90;;;;;;5115935;28;20554;-57
2023/09/29 03:22:25;;;;;;;9.03;6.33;;;16.80;99.90;;;;;;5116104;28;20867;-59
2023/09/29 03:24:54;;;;;;;7.47;6.10;;;16.80;99.90;;;;;;5116289;28;20498;-59
2023/09/29 03:27:21;;;;;;;11.80;6.20;;;16.70;99.90;;;;;;5116244;28;20455;-59
2023/09/29 03:29:49;;;;;;;10.00;6.63;;;16.70;99.90;;;;;;5116216;28;20463;-58
2023/09/29 03:32:16;;;;;;;7.27;6.57;;;16.70;99.90;;;;;;5116295;28;20502;-59
2023/09/29 03:34:43;;;;;;;7.20;5.93;;;16.70;99.90;;;;;;5118110;28;20501;-58
2023/09/29 03:37:10;;;;;;;8.40;5.90;;;16.70;99.90;;;;;;5117993;28;20440;-58
2023/09/29 03:39:38;;;;;;;8.43;6.30;;;16.80;99.90;;;;;;5118608;28;20486;-59
2023/09/29 03:42:06;;;;;;;7.37;6.10;;;16.80;99.90;;;;;;5121967;28;20466;-58
2023/09/29 03:44:34;;;;;;;7.20;5.73;;;16.90;99.90;;;;;;5122059;28;20450;-59
2023/09/29 03:47:01;;;;;;;9.10;6.47;;;17.00;99.90;;;;;;5121881;28;20463;-59
2023/09/29 03:49:30;;;;;;;7.37;5.93;;;17.00;99.90;;;;;;5121882;28;20455;-59
2023/09/29 03:51:59;;;;;;;7.20;6.60;;;17.10;99.90;;;;;;5121787;28;20490;-59
2023/09/29 03:54:26;;;;;;;6.30;5.70;;;17.20;99.90;;;;;;5121822;28;20862;-59
2023/09/29 03:56:53;;;;;;;7.27;5.57;;;17.20;99.90;;;;;;5121591;28;20466;-59
2023/09/29 03:59:24;;;;;;;5.73;5.23;;;17.20;99.90;;;;;;5121956;28;20467;-58
2023/09/29 04:01:51;;;;;;;5.77;5.17;;;17.30;99.90;;;;;;5121341;28;20494;-59
2023/09/29 04:04:18;;;;;;;7.17;5.10;;;17.30;99.90;;;;;;5121571;28;20461;-59
2023/09/29 04:06:45;;;;;;;9.43;5.37;;;17.30;99.90;;;;;;5121820;28;20487;-58
2023/09/29 04:09:12;;;;;;;7.17;5.60;;;17.30;99.90;;;;;;5120658;28;20459;-59
2023/09/29 04:11:40;;;;;;;10.43;6.20;;;17.30;99.90;;;;;;5121533;28;20928;-61
2023/09/29 04:14:07;;;;;;;7.67;5.70;;;17.30;99.90;;;;;;5122094;28;20459;-60
2023/09/29 04:16:36;;;;;;;7.73;5.87;;;17.30;99.90;;;;;;5122055;28;20496;-60
2023/09/29 04:19:03;;;;;;;6.07;5.47;;;17.30;99.90;;;;;;5121887;28;20465;-60
2023/09/29 04:21:30;;;;;;;7.10;5.70;;;17.30;99.90;;;;;;5122678;28;20542;-60
2023/09/29 04:23:58;;;;;;;5.90;5.30;;;17.30;99.90;;;;;;5121505;28;20494;-61
2023/09/29 04:26:25;;;;;;;7.03;5.87;;;17.30;99.90;;;;;;5122043;28;20543;-60
2023/09/29 04:28:53;;;;;;;7.40;5.80;;;17.30;99.90;;;;;;5121949;28;20491;-60
2023/09/29 04:31:20;;;;;;;8.30;6.17;;;17.30;99.90;;;;;;5121973;28;20985;-61
2023/09/29 04:33:48;;;;;;;7.13;5.37;;;17.20;99.90;;;;;;5117707;27;20483;-60
2023/09/29 04:36:16;;;;;;;6.03;4.80;;;17.20;99.90;;;;;;5125881;27;20457;-61
2023/09/29 04:38:43;;;;;;;5.50;5.00;;;17.30;99.90;;;;;;5142027;27;20463;-60
2023/09/29 04:41:10;;;;;;;6.87;4.80;;;17.30;99.90;;;;;;5142541;27;20534;-60
2023/09/29 04:43:37;;;;;;;8.37;6.00;;;17.40;99.90;;;;;;5142623;27;20454;-61
2023/09/29 04:46:04;;;;;;;6.23;5.63;;;17.50;99.90;;;;;;5141416;27;20461;-61
2023/09/29 04:48:32;;;;;;;6.37;5.00;;;17.50;99.90;;;;;;5141930;27;20527;-61
2023/09/29 04:51:01;;;;;;;5.67;4.73;;;17.50;81.00;;;;;;5142350;27;20495;-60
2023/09/29 04:53:28;;;;;;;6.00;5.40;;;17.50;99.90;;;;;;5141123;27;20466;-60
2023/09/29 04:55:55;;;;;;;7.20;5.23;;;17.50;84.70;;;;;;5141889;27;20542;-60
2023/09/29 04:58:22;;;;;;;7.53;5.30;;;17.50;76.70;;;;;;5142187;27;20909;-60
2023/09/29 05:00:50;;;;;;;10.03;6.00;;;17.50;49.00;;;;;;5141684;27;20583;-61
2023/09/29 05:03:17;;;;;;;8.83;5.67;;;17.60;43.60;;;;;;5141321;27;20926;-61
2023/09/29 05:05:47;;;;;;;6.60;5.70;;;17.60;34.40;;;;;;5141453;27;20454;-60
2023/09/29 05:08:18;;;;;;;6.60;5.57;;;17.60;31.20;;;;;;5139653;27;20541;-60
2023/09/29 05:10:45;;;;;;;7.30;5.50;;;17.60;25.60;;;;;;5109418;28;20460;-60
2023/09/29 05:13:12;;;;;;;7.13;5.87;;;17.60;41.90;;;;;;5121300;28;20511;-60
2023/09/29 05:15:40;;;;;;;7.23;6.53;;;17.60;25.20;;;;;;5121251;28;20491;-60
2023/09/29 05:18:08;;;;;;;6.97;5.70;;;17.60;12.30;;;;;;5120625;28;20477;-61
2023/09/29 05:20:35;;;;;;;6.47;5.70;;;17.60;17.20;;;;;;5121078;28;20919;-61
2023/09/29 05:23:02;;;;;;;6.80;6.00;;;17.60;17.70;;;;;;5120495;28;20809;-61
2023/09/29 05:25:31;;;;;;;8.70;5.93;;;17.70;1.00;;;;;;5121357;28;20463;-61
2023/09/29 05:27:58;;;;;;;9.40;5.50;;;17.70;1.00;;;;;;5121053;28;20455;-61
2023/09/29 05:30:26;;;;;;;11.70;5.90;;;17.70;1.00;;;;;;5121050;28;20463;-61
2023/09/29 05:32:53;;;;;;;6.53;5.90;;;17.70;1.00;;;;;;5121072;28;20495;-61
2023/09/29 05:35:21;;;;;;;7.60;5.60;;;17.70;1.00;;;;;;5120813;28;20546;-61
2023/09/29 05:37:49;;;;;;;8.63;5.40;;;17.70;1.00;;;;;;5121154;28;20455;-61
2023/09/29 05:40:16;;;;;;;5.83;5.23;;;17.80;1.00;;;;;;5120447;28;20455;-60
2023/09/29 05:42:45;;;;;;;5.33;4.83;;;17.80;1.00;;;;;;5120319;28;20432;-61
2023/09/29 05:45:12;;;;;;;5.83;5.23;;;17.80;1.00;;;;;;5120185;28;20511;-61
2023/09/29 05:47:40;;;;;;;6.93;5.83;;;17.80;1.00;;;;;;5120252;28;20546;-61
2023/09/29 05:50:08;;;;;;;7.13;5.60;;;17.90;1.00;;;;;;5119247;28;20460;-60
2023/09/29 05:52:35;;;;;;;7.70;5.03;;;17.90;1.00;;;;;;5120185;28;20466;-61
2023/09/29 05:55:03;;;;;;;5.70;4.50;;;17.90;1.00;;;;;;5120694;28;20848;-61
2023/09/29 05:57:30;;;;;;;6.60;4.90;;;17.90;1.00;;;;;;5120765;28;20455;-61
2023/09/29 05:59:59;;;;;;;7.43;5.17;;;17.90;1.00;;;;;;5120240;28;20470;-61
2023/09/29 06:02:26;;;;;;;6.30;5.43;;;17.90;1.00;;;;;;5119969;28;20483;-61
2023/09/29 06:04:53;;;;;;;5.67;5.07;;;18.00;1.00;;;;;;5119573;28;20451;-61
2023/09/29 06:07:20;;;;;;;11.67;5.37;;;18.00;1.00;;;;;;5120570;28;20487;-60
2023/09/29 06:09:48;;;;;;;6.80;4.70;;;18.10;1.00;;;;;;5119941;28;20452;-61
2023/09/29 06:12:15;;;;;;;8.10;5.37;;;18.10;1.00;;;;;;5118200;28;20574;-60
2023/09/29 06:14:42;;;;;;;6.23;4.77;;;18.20;1.00;;;;;;5119338;28;20455;-59
2023/09/29 06:17:11;;;;;;;7.17;5.33;;;18.30;1.00;;;;;;5119553;28;20491;-61
2023/09/29 06:19:38;;;;;;;9.43;5.27;;;18.40;1.00;;;;;;5119387;28;20567;-61
2023/09/29 06:22:05;;;;;;;5.20;4.67;;;18.50;1.00;;;;;;5120168;28;20487;-61
2023/09/29 06:24:33;;;;;;;6.40;5.00;;;18.60;1.00;;;;;;5120245;28;20818;-61
2023/09/29 06:27:00;;;;;;;5.93;4.30;;;18.50;1.00;;;;;;5119249;27;20481;-61
2023/09/29 06:29:27;;;;;;;5.50;4.30;;;18.60;1.00;;;;;;5118804;28;20882;-61
2023/09/29 06:31:54;;;;;;;5.17;4.13;;;18.60;1.00;;;;;;5117866;28;20487;-61
2023/09/29 06:34:23;;;;;;;8.67;4.83;;;18.60;1.00;;;;;;5118064;28;20455;-60
2023/09/29 06:36:51;;;;;;;6.87;4.50;;;18.70;1.00;;;;;;5117991;28;20426;-60
2023/09/29 06:39:18;;;;;;;7.33;4.73;;;18.60;1.00;;;;;;5117832;28;20487;-61
2023/09/29 06:41:45;;;;;;;5.97;4.83;;;18.60;1.00;;;;;;5118549;28;20455;-61
2023/09/29 06:44:12;;;;;;;6.30;4.70;;;18.70;1.00;;;;;;5117527;28;20513;-60
2023/09/29 06:46:40;;;;;;;7.87;4.33;;;18.60;1.00;;;;;;5118464;28;20500;-61
2023/09/29 06:49:07;;;;;;;8.40;4.50;;;18.70;1.00;;;;;;5118219;28;20459;-61
2023/09/29 06:51:36;;;;;;;9.50;5.20;;;18.60;1.00;;;;;;5117542;28;20487;-60
2023/09/29 06:54:03;;;;;;;8.10;5.40;;;18.60;1.00;;;;;;5118036;28;20922;-61
2023/09/29 06:56:31;;;;;;;7.90;5.30;;;18.70;1.00;;;;;;5117901;28;20521;-61
2023/09/29 06:58:59;;;;;;;8.93;5.37;;;18.90;1.00;;;;;;5120342;28;20838;-61
2023/09/29 07:01:27;;;;;;;6.57;5.30;;;18.90;1.00;;;;;;5121004;28;20491;-61
2023/09/29 07:03:55;;;;;;;6.63;5.83;;;18.90;1.00;;;;;;5119867;28;20483;-61
2023/09/29 07:06:23;;;;;;;7.63;5.07;;;19.10;1.00;;;;;;5120146;28;20466;-60
2023/09/29 07:08:52;;;;;;;5.60;4.80;;;19.10;1.00;;;;;;5120124;28;20908;-61
2023/09/29 07:11:20;;;;;;;6.07;4.27;;;19.30;1.00;;;;;;5119706;28;20508;-61
2023/09/29 07:13:47;;;;;;;4.97;4.40;;;19.30;1.00;;;;;;5119585;28;20486;-61
2023/09/29 07:16:17;;;;;;;7.40;4.90;;;19.50;1.00;;;;;;5118415;28;20884;-61
2023/09/29 07:18:44;;;;;;;7.03;5.17;;;19.60;1.00;;;;;;5117526;28;20442;-61
2023/09/29 07:21:12;;;;;;;5.33;3.77;;;19.80;99.90;;;;;;5119376;28;20914;-61
2023/09/29 07:23:39;;;;;;;6.80;5.07;;;19.90;99.90;;;;;;5119188;28;20456;-61
2023/09/29 07:26:08;;;;;;;6.00;4.53;;;19.90;99.90;;;;;;5119471;28;20430;-61
2023/09/29 07:28:36;;;;;;;5.80;5.20;;;20.00;99.90;;;;;;5119604;28;20896;-61
2023/09/29 07:31:03;;;;;;;5.40;4.63;;;20.10;99.90;;;;;;5120227;28;20570;-62
2023/09/29 07:33:30;;;;;;;4.43;4.03;;;20.50;99.90;;;;;;5120223;28;20556;-61
2023/09/29 07:35:57;;;;;;;7.17;4.60;;;21.00;99.90;;;;;;5119953;28;20455;-61
2023/09/29 07:38:25;;;;;;;5.07;4.40;;;21.40;99.90;;;;;;5119781;28;20517;-61
2023/09/29 07:40:52;;;;;;;6.00;4.60;;;21.70;99.90;;;;;;5120271;28;20522;-61
2023/09/29 07:43:21;;;;;;;4.63;4.10;;;22.00;99.90;;;;;;5119754;28;20487;-62
2023/09/29 07:45:49;;;;;;;5.00;4.50;;;22.00;99.90;;;;;;5118984;28;20460;-62
2023/09/29 07:48:16;;;;;;;5.57;4.77;;;22.10;99.90;;;;;;5119942;28;20491;-62
2023/09/29 07:50:43;;;;;;;4.80;4.30;;;22.20;99.90;;;;;;5119249;28;20487;-62
2023/09/29 07:53:11;;;;;;;4.67;4.03;;;22.50;99.90;;;;;;5119862;28;20523;-62
2023/09/29 07:55:38;;;;;;;5.20;4.23;;;22.70;99.90;;;;;;5119066;28;20451;-62
2023/09/29 07:58:06;;;;;;;6.20;4.50;;;22.60;99.90;;;;;;5118091;28;20486;-62
2023/09/29 08:00:34;;;;;;;5.27;4.73;;;22.60;1.00;;;;;;5117976;28;20455;-62
2023/09/29 08:03:02;;;;;;;6.33;4.33;;;22.50;1.00;;;;;;5117846;28;20483;-62
2023/09/29 08:05:29;;;;;;;4.83;4.10;;;22.50;1.00;;;;;;5118331;28;20895;-62
2023/09/29 08:07:56;;;;;;;5.83;4.60;;;22.80;1.00;;;;;;5117600;28;20431;-61
2023/09/29 08:10:24;;;;;;;5.57;4.63;;;23.10;1.00;;;;;;5117945;28;20459;-62
2023/09/29 08:12:52;;;;;;;6.17;4.20;;;23.70;1.00;;;;;;5117934;28;20545;-62
2023/09/29 08:15:21;;;;;;;5.17;4.67;;;23.60;1.00;;;;;;5118415;28;20894;-62
2023/09/29 08:17:50;;;;;;;7.43;4.60;;;23.50;1.00;;;;;;5118164;28;20474;-62
2023/09/29 08:20:18;;;;;;;5.33;4.50;;;23.20;1.00;;;;;;5117492;28;20448;-61
2023/09/29 08:22:46;;;;;;;5.00;4.10;;;23.00;1.00;;;;;;5117384;28;20455;-62
2023/09/29 08:25:14;;;;;;;5.50;4.40;;;22.90;1.00;;;;;;5118208;28;20458;-62
2023/09/29 08:27:42;;;;;;;8.50;3.57;;;23.10;1.00;;;;;;5120383;28;20452;-62
2023/09/29 08:30:10;;;;;;;11.30;7.07;;;23.40;1.00;;;;;;5121366;28;20455;-62
2023/09/29 08:32:39;;;;;;;6.00;4.20;;;23.70;1.00;;;;;;5121597;28;20487;-63
2023/09/29 08:35:12;;;;;;;7.20;4.27;;;24.00;99.90;;;;;;5122464;28;20509;-62
2023/09/29 08:37:40;;;;;;;5.50;4.03;;;24.10;99.90;;;;;;5121837;28;20546;-62
2023/09/29 08:40:10;;;;;;;5.63;4.10;;;24.30;99.90;;;;;;5121193;28;20459;-63
2023/09/29 08:42:38;;;;;;;4.23;3.83;;;24.60;99.90;;;;;;5121012;28;20455;-63
2023/09/29 08:45:09;;;;;;;6.50;4.10;;;24.50;99.90;;;;;;5120988;28;20617;-62
2023/09/29 08:47:38;;;;;;;6.40;4.50;;;24.50;99.90;;;;;;5121292;28;20509;-62
2023/09/29 08:50:08;;;;;;;6.30;4.40;;;24.20;99.90;;;;;;5120192;28;20473;-62
2023/09/29 08:52:37;;;;;;;5.80;4.80;;;23.80;99.90;;;;;;5120260;28;20574;-62
2023/09/29 08:55:05;;;;;;;4.80;4.30;;;23.40;99.90;;;;;;5120364;28;20491;-61
2023/09/29 08:57:32;;;;;;;8.27;4.80;;;23.00;99.90;;;;;;5120240;28;20517;-62
2023/09/29 09:00:02;;;;;;;5.17;3.90;;;22.80;99.90;;;;;;5120125;28;20456;-62
2023/09/29 09:02:30;;;;;;;5.50;4.30;;;22.60;1.00;;;;;;5119793;28;20483;-62
2023/09/29 09:04:57;;;;;;;4.43;4.03;;;22.40;1.00;;;;;;5120254;28;20491;-61
2023/09/29 09:07:26;;;;;;;6.00;4.17;;;22.50;1.00;;;;;;5119795;28;20456;-61
2023/09/29 09:09:55;;;;;;;6.10;4.50;;;22.50;1.00;;;;;;5119779;28;20485;-62
2023/09/29 09:12:34;;;;;;;6.23;4.33;;;22.30;1.00;;;;;;5120155;28;20483;-62
2023/09/29 09:15:03;;;;;;;5.90;5.30;;;22.20;1.00;;;;;;5120323;28;20542;-61
2023/09/29 09:17:31;;;;;;;6.80;4.30;;;22.10;1.00;;;;;;5119871;28;20888;-62
2023/09/29 09:19:58;;;;;;;5.00;4.10;;;22.00;1.00;;;;;;5119236;28;20462;-60
2023/09/29 09:22:31;;;;;;;6.27;4.70;;;22.10;1.00;;;;;;5119968;28;20551;-60
2023/09/29 09:24:59;;;;;;;5.30;3.80;;;22.00;1.00;;;;;;5119335;28;20898;-61
2023/09/29 09:27:27;;;;;;;5.90;4.37;;;22.10;1.00;;;;;;5119767;28;20554;-62
2023/09/29 09:29:54;;;;;;;5.30;4.77;;;22.20;1.00;;;;;;5119286;27;20455;-62
2023/09/29 09:32:27;;;;;;;5.27;4.77;;;22.40;1.00;;;;;;5119899;28;20487;-61
2023/09/29 09:34:55;;;;;;;5.00;4.50;;;22.70;1.00;;;;;;5120118;28;20512;-62
2023/09/29 09:37:27;;;;;;;6.37;4.67;;;23.00;1.00;;;;;;5124260;27;20905;-62
2023/09/29 09:39:56;;;;;;;4.93;4.43;;;23.40;99.90;;;;;;5113597;27;20558;-62
2023/09/29 09:42:26;;;;;;;5.60;4.80;;;23.60;99.90;;;;;;5119668;28;20466;-61
2023/09/29 09:44:57;;;;;;;9.03;4.40;;;23.90;99.90;;;;;;5119358;28;20478;-61
2023/09/29 09:47:26;;;;;;;5.30;4.37;;;24.00;99.90;;;;;;5118977;28;20455;-61
2023/09/29 09:49:56;;;;;;;5.10;4.60;;;24.10;99.90;;;;;;5118515;28;20555;-60
2023/09/29 09:52:29;;;;;;;5.37;4.53;;;24.00;99.90;;;;;;5119181;28;20950;-62
2023/09/29 09:54:58;;;;;;;5.33;4.30;;;24.00;99.90;;;;;;5119577;28;20459;-62
2023/09/29 09:57:32;;;;;;;4.80;4.17;;;24.20;99.90;;;;;;5119485;28;20851;-62
2023/09/29 10:00:07;;;;;;;6.87;4.80;;;24.70;99.90;;;;;;5119353;28;20495;-62
2023/09/29 10:02:39;;;;;;;5.83;5.23;;;25.10;99.90;;;;;;5118726;28;20999;-63
2023/09/29 10:05:13;;;;;;;7.50;4.83;;;25.40;99.90;;;;;;5119568;28;20491;-62
2023/09/29 10:07:47;;;;;;;5.40;4.43;;;25.30;99.90;;;;;;5119099;28;20487;-62
2023/09/29 10:10:25;;;;;;;5.40;4.80;;;25.10;67.60;;;;;;5117933;28;20520;-61
2023/09/29 10:12:55;;;;;;;5.50;4.80;;;24.90;63.50;;;;;;5118388;28;20494;-62
2023/09/29 10:15:28;;;;;;;6.17;5.40;;;24.40;91.30;;;;;;5118427;28;20456;-62
2023/09/29 10:17:56;;;;;;;5.20;4.70;;;24.10;99.90;;;;;;5117391;28;20546;-61
2023/09/29 10:20:26;;;;;;;5.70;4.57;;;23.80;99.90;;;;;;5118277;28;20546;-62
2023/09/29 10:23:06;;;;;;;5.93;4.63;;;23.50;99.90;;;;;;5118784;28;20550;-61
2023/09/29 10:25:34;;;;;;;5.93;4.80;;;23.30;99.90;;;;;;5118756;28;20455;-61
2023/09/29 10:28:06;;;;;;;8.10;5.90;;;23.00;1.00;;;;;;5118711;28;20713;-63
2023/09/29 10:30:34;;;;;;;6.67;5.40;;;22.80;1.00;;;;;;5118704;28;20739;-61
2023/09/29 10:33:06;;;;;;;7.63;4.80;;;22.40;1.00;;;;;;5118569;28;20487;-63
2023/09/29 10:35:35;;;;;;;7.23;4.87;;;22.00;99.90;;;;;;5118508;28;20838;-61
2023/09/29 10:38:12;;;;;;;5.73;4.13;;;21.90;1.00;;;;;;5117907;28;20470;-63
2023/09/29 10:40:40;;;;;;;6.37;4.13;;;21.70;1.00;;;;;;5118078;28;20745;-62
2023/09/29 10:43:09;;;;;;;5.93;4.30;;;21.70;1.00;;;;;;5118741;28;20868;-61
2023/09/29 10:45:37;;;;;;;7.57;4.93;;;21.80;99.90;;;;;;5118700;28;20516;-61
2023/09/29 10:48:07;;;;;;;6.93;4.80;;;21.90;99.90;;;;;;5117913;28;20463;-60
2023/09/29 10:50:42;;;;;;;6.50;4.97;;;22.00;99.90;;;;;;5117640;28;20772;-61
2023/09/29 10:53:12;;;;;;;7.63;5.87;;;21.90;99.90;;;;;;5118411;28;20487;-60
2023/09/29 10:55:47;;;;;;;7.43;5.20;;;21.90;1.00;;;;;;5118303;27;20747;-59
2023/09/29 10:58:21;;;;;;;6.03;4.93;;;21.90;99.90;;;;;;5118395;28;20785;-60
2023/09/29 11:00:51;;;;;;;7.90;4.60;;;21.80;99.90;;;;;;5118474;28;20787;-60
2023/09/29 11:03:22;;;;;;;10.17;4.80;;;21.90;99.90;;;;;;5117901;28;20526;-60
2023/09/29 11:05:51;;;;;;;5.43;4.60;;;21.90;99.90;;;;;;5118576;28;20889;-60
2023/09/29 11:08:21;;;;;;;8.07;5.20;;;21.90;99.90;;;;;;5117492;28;20459;-61
2023/09/29 11:11:02;;;;;;;7.17;5.00;;;21.90;99.90;;;;;;5118743;28;20485;-60
2023/09/29 11:13:31;;;;;;;12.07;5.13;;;22.10;99.90;;;;;;5118447;28;20487;-60
2023/09/29 11:15:59;;;;;;;7.17;4.93;;;22.70;99.90;;;;;;5117860;28;20455;-60
2023/09/29 11:18:28;;;;;;;8.40;5.10;;;23.30;99.90;;;;;;5118356;28;20808;-60
2023/09/29 11:20:57;;;;;;;6.17;4.97;;;23.90;1.00;;;;;;5118392;28;20455;-60
2023/09/29 11:23:28;;;;;;;7.57;5.30;;;24.40;1.00;;;;;;5118858;28;20495;-63
2023/09/29 11:25:58;;;;;;;8.10;5.50;;;24.30;99.90;;;;;;5118777;28;20740;-61
2023/09/29 11:28:26;;;;;;;10.67;6.40;;;24.60;51.20;;;;;;5118232;28;20463;-61
2023/09/29 11:30:54;;;;;;;8.73;5.57;;;24.90;99.90;;;;;;5118798;28;20498;-61
2023/09/29 11:33:22;;;;;;;10.47;6.97;;;25.00;96.60;;;;;;5118893;28;20498;-63
2023/09/29 11:35:51;;;;;;;8.40;6.07;;;25.00;80.50;;;;;;5118671;28;20459;-61
2023/09/29 11:38:20;;;;;;;10.47;6.50;;;24.90;11.80;;;;;;5117897;28;20576;-61
2023/09/29 11:40:55;;;;;;;12.03;7.50;;;25.20;25.60;;;;;;5118511;28;20458;-62
2023/09/29 11:43:22;;;;;;;9.07;6.60;;;25.20;11.50;;;;;;5118218;28;20755;-61
2023/09/29 11:45:50;;;;;;;10.23;6.57;;;24.70;1.00;;;;;;5117782;28;20459;-61
2023/09/29 11:48:17;;;;;;;10.13;7.27;;;24.70;1.00;;;;;;5117306;28;20452;-61
2023/09/29 11:50:46;;;;;;;13.10;8.00;;;24.70;1.00;;;;;;5116645;28;20533;-60
2023/09/29 11:53:13;;;;;;;10.00;6.87;;;24.80;1.00;;;;;;5118158;28;20491;-61
2023/09/29 11:55:40;;;;;;;13.63;7.40;;;24.60;1.00;;;;;;5115304;28;20467;-59
2023/09/29 11:58:09;;;;;;;10.30;7.27;;;24.40;1.00;;;;;;5116579;28;20493;-60
2023/09/29 12:00:37;;;;;;;9.23;6.13;;;24.30;1.00;;;;;;5116185;28;20471;-60
2023/09/29 12:03:05;;;;;;;9.80;7.00;;;24.50;1.00;;;;;;5117556;27;20483;-61
2023/09/29 12:05:33;;;;;;;11.23;7.33;;;24.90;1.00;;;;;;5108629;28;20956;-60
2023/09/29 12:08:00;;;;;;;10.50;7.10;;;25.20;1.00;;;;;;5120667;28;20545;-62
2023/09/29 12:10:28;;;;;;;9.57;7.47;;;25.60;1.00;;;;;;5124149;27;20501;-61
2023/09/29 12:12:59;;;;;;;13.47;8.33;;;25.60;1.00;;;;;;5118318;28;20915;-60
2023/09/29 12:15:27;;;;;;;11.80;7.17;;;25.60;1.00;;;;;;5120769;28;20500;-58
2023/09/29 12:17:55;;;;;;;10.27;6.80;;;25.50;1.00;;;;;;5119487;28;20452;-60
2023/09/29 12:20:24;;;;;;;9.87;6.87;;;25.60;1.00;;;;;;5120879;28;20934;-60
2023/09/29 12:22:52;;;;;;;11.17;7.73;;;26.20;1.00;;;;;;5120010;28;20459;-60
2023/09/29 12:25:19;;;;;;;11.83;6.93;;;26.70;1.00;;;;;;5119872;28;21034;-60
2023/09/29 12:27:48;;;;;;;11.20;7.53;;;26.20;1.00;;;;;;5114661;28;20459;-59
2023/09/29 12:30:17;;;;;;;12.37;7.50;;;25.60;1.00;;;;;;5115816;27;20506;-60
2023/09/29 12:32:46;;;;;;;10.87;7.30;;;25.20;1.00;;;;;;5119348;28;20489;-61
2023/09/29 12:35:14;;;;;;;9.63;6.53;;;24.80;1.00;;;;;;5120485;28;20534;-59
2023/09/29 12:37:42;;;;;;;10.20;7.40;;;24.80;1.00;;;;;;5120420;27;20509;-59
2023/09/29 12:40:11;;;;;;;12.63;7.10;;;24.50;1.00;;;;;;5120308;28;20499;-59
2023/09/29 12:42:40;;;;;;;11.00;7.03;;;24.60;1.00;;;;;;5120315;27;20459;-59
2023/09/29 12:45:09;;;;;;;13.20;7.13;;;24.50;1.00;;;;;;5119519;28;20892;-59
2023/09/29 12:47:37;;;;;;;12.17;6.93;;;24.50;1.00;;;;;;5118613;28;20466;-59
2023/09/29 12:50:08;;;;;;;12.90;8.30;;;24.50;1.00;;;;;;5118910;28;20485;-59
2023/09/29 12:52:36;;;;;;;11.50;7.67;;;24.30;1.00;;;;;;5118999;28;20455;-59
2023/09/29 12:55:03;;;;;;;12.60;7.90;;;23.90;1.00;;;;;;5118685;28;20487;-60